Terminal Aerodrome Forecast
Issued by NWS Cleveland, OH

Home | Current Version | Previous Version | Graphics & Text | Print | Product List | Glossary On
Versions: 1 2 3 4 5 6 7 8 9 10 11 12 13 14 15 16 17 18
000
FTUS41 KCLE 132300
TAFCAK
TAF
KCAK 132330Z 1400/1424 21015KT P6SM SCT050 BKN200 WS010/21040KT
     FM141100 19015G25KT P6SM VCSH SCT050 BKN150 WS016/21045KT
     FM141500 20019G28KT 6SM -SHRA VCTS BKN035CB OVC120
     FM142100 20020G30KT 4SM SHRA BR VCTS OVC025CB=

USA.gov is the U.S. government's official web portal to all federal, state and local government web resources and services.